Time,TemperatureF,DewpointF,PressureIn,WindDirection,WindDirectionDegrees,WindSpeedMPH,WindSpeedGustMPH,Humidity,HourlyPrecipIn,Conditions,Clouds,dailyrainin,SoftwareType,DateUTC
2013-01-21 09:30:00,19.9,10.4,29.94,WSW,245,3.0,5.0,66,0.00,CLR,FEW,0.00,WeatherDisplay:10.37,2013-01-21 14:30:00,
2013-01-21 09:35:00,19.9,10.4,29.94,SW,225,2.0,6.0,66,0.00,CLR,FEW,0.00,WeatherDisplay:10.37,2013-01-21 14:35:00,
2013-01-21 09:40:00,19.9,10.4,29.94,SW,215,2.0,5.0,66,0.00,CLR,FEW,0.00,WeatherDisplay:10.37,2013-01-21 14:40:00,
2013-01-21 09:45:00,20.8,11.3,29.94,SW,219,3.0,5.0,66,0.00,CLR,FEW,0.00,WeatherDisplay:10.37,2013-01-21 14:45:00,
2013-01-21 09:50:00,21.0,11.1,29.94,SW,224,5.0,8.0,65,0.00,CLR,FEW,0.00,WeatherDisplay:10.37,2013-01-21 14:50:00,
2013-01-21 09:55:00,20.3,10.4,29.91,SW,231,5.0,6.0,65,0.00,CLR,FEW,0.00,WeatherDisplay:10.37,2013-01-21 14:55:00,
2013-01-21 10:00:00,20.5,10.2,29.91,SW,221,3.0,3.0,64,0.00,CLR,FEW,0.00,WeatherDisplay:10.37,2013-01-21 15:00:00,
2013-01-21 10:05:00,21.2,10.6,29.91,SSW,207,2.0,2.0,63,0.00,CLR,FEW,0.00,WeatherDisplay:10.37,2013-01-21 15:05:00,
2013-01-21 10:10:00,21.6,11.3,29.91,SSW,211,2.0,6.0,64,0.00,CLR,FEW,0.00,WeatherDisplay:10.37,2013-01-21 15:10:00,
2013-01-21 10:20:00,20.8,9.5,29.91,SW,232,6.0,9.0,61,0.00,CLR,FEW,0.00,WeatherDisplay:10.37,2013-01-21 15:20:00,
2013-01-21 10:30:00,20.8,9.9,29.91,SW,231,9.0,12.0,62,0.00,CLR,FEW,0.00,WeatherDisplay:10.37,2013-01-21 15:30:00,
2013-01-21 10:40:00,21.2,9.8,29.91,SW,227,8.0,10.0,61,0.00,CLR,FEW,0.00,WeatherDisplay:10.37,2013-01-21 15:40:00,
2013-01-21 10:45:00,20.8,10.6,29.91,SW,234,8.0,10.0,64,0.00,CLR,FEW,0.00,WeatherDisplay:10.37,2013-01-21 15:45:00,
2013-01-21 10:50:00,20.7,10.4,29.91,WSW,247,8.0,10.0,64,0.00,CLR,FEW,0.00,WeatherDisplay:10.37,2013-01-21 15:50:00,
2013-01-21 10:55:00,21.6,11.6,29.91,WSW,247,8.0,14.0,65,0.00,CLR,FEW,0.00,WeatherDisplay:10.37,2013-01-21 15:55:00,
2013-01-21 11:00:00,21.6,12.3,29.91,WSW,241,9.0,14.0,67,0.00,CLR,FEW,0.00,WeatherDisplay:10.37,2013-01-21 16:00:00,
2013-01-21 11:05:00,21.7,12.5,29.91,SW,220,7.0,7.0,67,0.00,CLR,FEW,0.00,WeatherDisplay:10.37,2013-01-21 16:05:00,
2013-01-21 11:10:00,21.6,12.6,29.91,SW,220,7.0,9.0,68,0.00,CLR,FEW,0.00,WeatherDisplay:10.37,2013-01-21 16:10:00,
2013-01-21 11:15:00,21.7,13.1,29.91,WSW,244,7.0,10.0,69,0.00,CLR,FEW,0.00,WeatherDisplay:10.37,2013-01-21 16:15:00,
2013-01-21 11:20:00,21.0,14.0,29.91,WSW,255,7.0,10.0,74,0.00,CLR,FEW,0.00,WeatherDisplay:10.37,2013-01-21 16:20:00,
2013-01-21 11:30:00,20.5,14.7,29.91,WSW,253,9.0,11.0,78,0.00,CLR,FEW,0.00,WeatherDisplay:10.37,2013-01-21 16:30:00,
2013-01-21 11:40:00,20.3,15.1,29.91,SW,236,9.0,14.0,80,0.00,CLR,FEW,0.00,WeatherDisplay:10.37,2013-01-21 16:40:00,
2013-01-21 11:50:00,21.0,15.2,29.88,WSW,255,9.0,13.0,78,0.00,CLR,FEW,0.00,WeatherDisplay:10.37,2013-01-21 16:50:00,
2013-01-21 11:55:00,20.5,14.1,29.88,WSW,254,9.0,14.0,76,0.00,CLR,FEW,0.00,WeatherDisplay:10.37,2013-01-21 16:55:00,
2013-01-21 12:00:00,20.3,13.0,29.88,WSW,250,10.0,20.0,73,0.00,CLR,FEW,0.00,WeatherDisplay:10.37,2013-01-21 17:00:00,
2013-01-21 12:05:00,21.6,13.6,29.88,WSW,248,13.0,20.0,71,0.00,CLR,FEW,0.00,WeatherDisplay:10.37,2013-01-21 17:05:00,
2013-01-21 12:10:00,21.9,14.0,29.88,WSW,239,13.0,13.0,71,0.00,CLR,FEW,0.00,WeatherDisplay:10.37,2013-01-21 17:10:00,
2013-01-21 12:20:00,22.8,12.5,29.88,WSW,249,10.0,14.0,64,0.00,CLR,FEW,0.00,WeatherDisplay:10.37,2013-01-21 17:20:00,
2013-01-21 12:30:00,22.8,9.0,29.88,WSW,240,10.0,14.0,55,0.00,CLR,FEW,0.00,WeatherDisplay:10.37,2013-01-21 17:30:00,
2013-01-21 12:40:00,23.5,7.2,29.85,SW,233,13.0,13.0,49,0.00,CLR,FEW,0.00,WeatherDisplay:10.37,2013-01-21 17:40:00,
2013-01-21 12:50:00,22.8,6.5,29.85,WSW,248,10.0,18.0,49,0.00,CLR,FEW,0.00,WeatherDisplay:10.37,2013-01-21 17:50:00,
2013-01-21 13:00:00,22.3,6.0,29.85,WSW,250,12.0,18.0,49,0.00,CLR,FEW,0.00,WeatherDisplay:10.37,2013-01-21 18:00:00,
2013-01-21 13:05:00,23.5,8.5,29.85,WSW,248,14.0,16.0,52,0.00,CLR,FEW,0.00,WeatherDisplay:10.37,2013-01-21 18:05:00,
2013-01-21 13:10:00,23.2,8.1,29.85,WSW,248,14.0,18.0,52,0.00,CLR,FEW,0.00,WeatherDisplay:10.37,2013-01-21 18:10:00,
2013-01-21 13:20:00,22.1,5.8,29.85,WSW,245,16.0,19.0,49,0.00,CLR,FEW,0.00,WeatherDisplay:10.37,2013-01-21 18:20:00,
2013-01-21 13:30:00,22.3,6.4,29.85,WSW,241,18.0,22.0,50,0.00,CLR,FEW,0.00,WeatherDisplay:10.37,2013-01-21 18:30:00,
2013-01-21 13:35:00,21.4,5.6,29.85,WSW,244,18.0,22.0,50,0.00,CLR,FEW,0.00,WeatherDisplay:10.37,2013-01-21 18:35:00,
2013-01-21 13:40:00,21.4,5.6,29.85,WSW,245,18.0,20.0,50,0.00,CLR,FEW,0.00,WeatherDisplay:10.37,2013-01-21 18:40:00,
2013-01-21 13:50:00,21.2,10.2,29.85,WSW,254,16.0,16.0,62,0.00,CLR,FEW,0.00,WeatherDisplay:10.37,2013-01-21 18:50:00,
2013-01-21 13:55:00,20.5,10.6,29.85,WSW,255,16.0,16.0,65,0.00,CLR,FEW,0.00,WeatherDisplay:10.37,2013-01-21 18:55:00,
2013-01-21 14:00:00,21.9,12.3,29.85,WSW,251,12.0,13.0,66,0.00,CLR,FEW,0.00,WeatherDisplay:10.37,2013-01-21 19:00:00,
2013-01-21 14:05:00,21.7,11.4,29.85,WSW,250,10.0,15.0,64,0.00,CLR,FEW,0.00,WeatherDisplay:10.37,2013-01-21 19:05:00,
2013-01-21 14:10:00,21.6,10.5,29.85,WSW,256,10.0,14.0,62,0.00,CLR,FEW,0.00,WeatherDisplay:10.37,2013-01-21 19:10:00,
2013-01-21 14:20:00,21.0,12.1,29.85,WSW,240,14.0,20.0,68,0.00,CLR,FEW,0.00,WeatherDisplay:10.37,2013-01-21 19:20:00,
2013-01-21 14:30:00,20.1,11.6,29.88,West,259,14.0,16.0,69,0.00,CLR,FEW,0.00,WeatherDisplay:10.37,2013-01-21 19:30:00,
2013-01-21 14:40:00,21.2,12.6,29.85,WSW,247,13.0,13.0,69,0.00,CLR,FEW,0.00,WeatherDisplay:10.37,2013-01-21 19:40:00,
2013-01-21 14:50:00,19.8,12.8,29.88,West,265,13.0,22.0,74,0.00,CLR,FEW,0.00,WeatherDisplay:10.37,2013-01-21 19:50:00,
2013-01-21 15:00:00,22.5,14.5,29.88,WSW,256,14.0,15.0,71,0.00,CLR,FEW,0.00,WeatherDisplay:10.37,2013-01-21 20:00:00,
2013-01-21 15:05:00,20.8,11.9,29.88,West,259,15.0,18.0,68,0.00,CLR,FEW,0.00,WeatherDisplay:10.37,2013-01-21 20:05:00,
2013-01-21 15:10:00,20.3,12.1,29.88,WSW,248,15.0,18.0,70,0.00,CLR,FEW,0.00,WeatherDisplay:10.37,2013-01-21 20:10:00,
2013-01-21 15:15:00,19.8,10.9,29.88,WSW,240,14.0,18.0,68,0.00,CLR,FEW,0.00,WeatherDisplay:10.37,2013-01-21 20:15:00,
2013-01-21 15:20:00,19.9,10.4,29.88,WSW,250,15.0,18.0,66,0.00,CLR,FEW,0.00,WeatherDisplay:10.37,2013-01-21 20:20:00,
2013-01-21 15:25:00,19.8,9.9,29.88,West,268,16.0,21.0,65,0.00,CLR,FEW,0.00,WeatherDisplay:10.37,2013-01-21 20:25:00,
2013-01-21 15:30:00,19.0,6.3,29.88,West,269,17.0,20.0,57,0.00,CLR,FEW,0.00,WeatherDisplay:10.37,2013-01-21 20:30:00,
2013-01-21 15:35:00,19.8,4.1,29.88,WSW,257,17.0,17.0,50,0.00,CLR,FEW,0.00,WeatherDisplay:10.37,2013-01-21 20:35:00,
2013-01-21 15:40:00,19.4,3.3,29.88,WSW,247,17.0,22.0,49,0.00,CLR,FEW,0.00,WeatherDisplay:10.37,2013-01-21 20:40:00,
2013-01-21 15:45:00,19.9,3.8,29.88,WSW,244,17.0,22.0,49,0.00,CLR,FEW,0.00,WeatherDisplay:10.37,2013-01-21 20:45:00,
2013-01-21 15:50:00,18.9,2.8,29.88,West,271,17.0,20.0,49,0.00,CLR,FEW,0.00,WeatherDisplay:10.37,2013-01-21 20:50:00,
2013-01-21 15:55:00,19.4,3.3,29.88,WSW,251,17.0,20.0,49,0.00,CLR,FEW,0.00,WeatherDisplay:10.37,2013-01-21 20:55:00,
2013-01-21 16:00:00,18.3,2.8,29.88,WSW,240,16.0,20.0,50,0.00,CLR,FEW,0.00,WeatherDisplay:10.37,2013-01-21 21:00:00,
2013-01-21 16:05:00,18.3,2.8,29.88,West,265,16.0,20.0,50,0.00,CLR,FEW,0.00,WeatherDisplay:10.37,2013-01-21 21:05:00,
2013-01-21 16:15:00,17.1,8.0,29.91,WSW,248,18.0,21.0,67,0.00,CLR,FEW,0.00,WeatherDisplay:10.37,2013-01-21 21:15:00,
2013-01-21 16:20:00,17.4,8.0,29.91,WSW,254,17.0,17.0,66,0.00,CLR,FEW,0.00,WeatherDisplay:10.37,2013-01-21 21:20:00,
2013-01-21 16:30:00,17.4,8.7,29.91,West,281,15.0,18.0,68,0.00,CLR,FEW,0.00,WeatherDisplay:10.37,2013-01-21 21:30:00,
2013-01-21 16:40:00,17.6,11.0,29.91,WNW,283,12.0,12.0,75,0.00,CLR,FEW,0.00,WeatherDisplay:10.37,2013-01-21 21:40:00,
2013-01-21 16:50:00,16.9,11.2,29.91,West,280,8.0,12.0,78,0.00,CLR,FEW,0.00,WeatherDisplay:10.37,2013-01-21 21:50:00,
2013-01-21 17:00:00,16.5,11.4,29.91,WNW,282,8.0,12.0,80,0.00,CLR,FEW,0.00,WeatherDisplay:10.37,2013-01-21 22:00:00,
2013-01-21 17:05:00,16.2,11.4,29.91,WNW,284,9.0,11.0,81,0.00,CLR,FEW,0.00,WeatherDisplay:10.37,2013-01-21 22:05:00,
2013-01-21 17:10:00,16.0,10.9,29.91,West,264,10.0,10.0,80,0.00,CLR,FEW,0.00,WeatherDisplay:10.37,2013-01-21 22:10:00,
2013-01-21 17:20:00,15.3,9.0,29.91,West,260,12.0,20.0,76,0.00,CLR,FEW,0.00,WeatherDisplay:10.37,2013-01-21 22:20:00,
2013-01-21 17:25:00,15.3,8.8,29.91,WSW,241,13.0,17.0,75,0.00,CLR,FEW,0.00,WeatherDisplay:10.37,2013-01-21 22:25:00,
2013-01-21 17:30:00,15.3,8.5,29.94,WSW,241,14.0,14.0,74,0.00,CLR,FEW,0.00,WeatherDisplay:10.37,2013-01-21 22:30:00,
2013-01-21 17:35:00,14.5,8.4,29.94,WSW,254,13.0,15.0,76,0.00,CLR,FEW,0.00,WeatherDisplay:10.37,2013-01-21 22:35:00,
2013-01-21 17:40:00,15.1,8.9,29.94,WSW,256,13.0,15.0,76,0.00,CLR,FEW,0.00,WeatherDisplay:10.37,2013-01-21 22:40:00,
2013-01-21 17:45:00,15.1,8.9,29.94,West,268,12.0,15.0,76,0.00,CLR,FEW,0.00,WeatherDisplay:10.37,2013-01-21 22:45:00,
2013-01-21 17:50:00,14.9,8.7,29.94,WSW,257,10.0,10.0,76,0.00,CLR,FEW,0.00,WeatherDisplay:10.37,2013-01-21 22:50:00,
2013-01-21 18:00:00,14.9,8.1,29.94,WSW,252,9.0,13.0,74,0.00,CLR,FEW,0.00,WeatherDisplay:10.37,2013-01-21 23:00:00,
2013-01-21 18:05:00,14.7,7.6,29.94,WSW,254,10.0,17.0,73,0.00,CLR,FEW,0.00,WeatherDisplay:10.37,2013-01-21 23:05:00,
2013-01-21 18:10:00,14.2,6.8,29.94,WSW,247,13.0,17.0,72,0.00,CLR,FEW,0.00,WeatherDisplay:10.37,2013-01-21 23:10:00,
2013-01-21 18:15:00,14.5,7.5,29.94,WSW,244,14.0,16.0,73,0.00,CLR,FEW,0.00,WeatherDisplay:10.37,2013-01-21 23:15:00,
2013-01-21 18:20:00,14.7,7.9,29.94,WSW,257,13.0,13.0,74,0.00,CLR,FEW,0.00,WeatherDisplay:10.37,2013-01-21 23:20:00,
2013-01-21 18:30:00,14.5,7.2,29.94,West,259,9.0,13.0,72,0.00,CLR,FEW,0.00,WeatherDisplay:10.37,2013-01-21 23:30:00,
2013-01-21 18:40:00,14.9,6.6,29.94,WSW,255,9.0,14.0,69,0.00,CLR,FEW,0.00,WeatherDisplay:10.37,2013-01-21 23:40:00,
2013-01-21 18:45:00,14.5,6.2,29.94,WSW,257,10.0,14.0,69,0.00,CLR,FEW,0.00,WeatherDisplay:10.37,2013-01-21 23:45:00,
2013-01-21 18:50:00,14.7,6.1,29.94,West,271,12.0,14.0,68,0.00,CLR,FEW,0.00,WeatherDisplay:10.37,2013-01-21 23:50:00,
2013-01-21 19:00:00,14.2,4.9,29.94,WSW,251,12.0,12.0,66,0.00,CLR,FEW,0.00,WeatherDisplay:10.37,2013-01-22 00:00:00,
2013-01-21 19:05:00,14.0,4.7,29.94,WSW,246,12.0,12.0,66,0.00,CLR,FEW,0.00,WeatherDisplay:10.37,2013-01-22 00:05:00,
2013-01-21 19:10:00,14.0,4.4,29.94,WSW,246,10.0,10.0,65,0.00,CLR,FEW,0.00,WeatherDisplay:10.37,2013-01-22 00:10:00,
2013-01-21 19:20:00,14.2,4.9,29.94,WSW,247,9.0,13.0,66,0.00,CLR,FEW,0.00,WeatherDisplay:10.37,2013-01-22 00:20:00,
2013-01-21 19:30:00,14.0,5.4,29.94,West,269,9.0,13.0,68,0.00,CLR,FEW,0.00,WeatherDisplay:10.37,2013-01-22 00:30:00,
2013-01-21 19:35:00,14.0,6.0,29.94,WNW,288,10.0,15.0,70,0.00,CLR,FEW,0.00,WeatherDisplay:10.37,2013-01-22 00:35:00,
2013-01-21 19:40:00,14.0,6.6,29.94,WNW,284,12.0,15.0,72,0.00,CLR,FEW,0.00,WeatherDisplay:10.37,2013-01-22 00:40:00,
2013-01-21 19:50:00,13.6,8.1,29.94,West,270,12.0,12.0,78,0.00,CLR,FEW,0.00,WeatherDisplay:10.37,2013-01-22 00:50:00,
2013-01-21 20:00:00,12.9,7.6,29.94,West,263,12.0,19.0,79,0.00,CLR,FEW,0.00,WeatherDisplay:10.37,2013-01-22 01:00:00,
2013-01-21 20:05:00,13.5,8.4,29.94,West,264,13.0,14.0,80,0.00,CLR,FEW,0.00,WeatherDisplay:10.37,2013-01-22 01:05:00,
2013-01-21 20:10:00,13.5,8.4,29.94,West,267,13.0,13.0,80,0.00,CLR,FEW,0.00,WeatherDisplay:10.37,2013-01-22 01:10:00,
2013-01-21 20:20:00,13.5,9.3,29.94,West,262,13.0,13.0,83,0.00,CLR,FEW,0.00,WeatherDisplay:10.37,2013-01-22 01:20:00,
2013-01-21 20:30:00,12.7,8.6,29.94,West,268,12.0,14.0,83,0.00,CLR,FEW,0.00,WeatherDisplay:10.37,2013-01-22 01:30:00,
2013-01-21 20:40:00,12.7,8.6,29.97,West,267,12.0,12.0,83,0.00,CLR,FEW,0.00,WeatherDisplay:10.37,2013-01-22 01:40:00,
2013-01-21 20:45:00,12.7,8.0,29.97,WSW,258,13.0,21.0,81,0.00,CLR,FEW,0.00,WeatherDisplay:10.37,2013-01-22 01:45:00,
2013-01-21 20:50:00,12.4,7.4,29.97,WSW,256,14.0,21.0,80,0.00,CLR,FEW,0.00,WeatherDisplay:10.37,2013-01-22 01:50:00,
2013-01-21 21:00:00,12.6,7.6,29.97,West,265,15.0,19.0,80,0.00,CLR,FEW,0.00,WeatherDisplay:10.37,2013-01-22 02:00:00,
2013-01-21 21:05:00,12.6,7.6,29.97,West,266,14.0,14.0,80,0.00,CLR,FEW,0.00,WeatherDisplay:10.37,2013-01-22 02:05:00,
2013-01-21 21:10:00,12.6,7.8,29.97,West,265,13.0,13.0,81,0.00,CLR,FEW,0.00,WeatherDisplay:10.37,2013-01-22 02:10:00,
2013-01-21 21:20:00,11.8,7.1,29.97,West,277,9.0,10.0,81,0.00,CLR,FEW,0.00,WeatherDisplay:10.37,2013-01-22 02:20:00,
2013-01-21 21:25:00,11.8,7.1,29.97,WNW,282,9.0,9.0,81,0.00,CLR,FEW,0.00,WeatherDisplay:10.37,2013-01-22 02:25:00,
2013-01-21 21:30:00,11.8,6.9,29.97,WNW,285,9.0,10.0,80,0.00,CLR,FEW,0.00,WeatherDisplay:10.37,2013-01-22 02:30:00,
2013-01-21 21:40:00,11.7,6.4,29.97,West,262,8.0,8.0,79,0.00,CLR,FEW,0.00,WeatherDisplay:10.37,2013-01-22 02:40:00,
2013-01-21 21:50:00,11.3,5.2,29.97,West,262,8.0,14.0,76,0.00,CLR,FEW,0.00,WeatherDisplay:10.37,2013-01-22 02:50:00,
2013-01-21 21:55:00,11.1,5.0,29.97,West,270,8.0,14.0,76,0.00,CLR,FEW,0.00,WeatherDisplay:10.37,2013-01-22 02:55:00,
2013-01-21 22:00:00,10.6,3.9,29.97,West,269,12.0,18.0,74,0.00,CLR,FEW,0.00,WeatherDisplay:10.37,2013-01-22 03:00:00,
2013-01-21 22:05:00,10.9,3.7,29.97,West,263,13.0,13.0,72,0.00,CLR,FEW,0.00,WeatherDisplay:10.37,2013-01-22 03:05:00,
2013-01-21 22:10:00,10.8,3.2,29.97,West,263,13.0,14.0,71,0.00,CLR,FEW,0.00,WeatherDisplay:10.37,2013-01-22 03:10:00,
2013-01-21 22:20:00,10.2,2.7,29.97,West,269,13.0,14.0,71,0.00,CLR,FEW,0.00,WeatherDisplay:10.37,2013-01-22 03:20:00,
2013-01-21 22:25:00,10.4,2.5,29.97,West,269,13.0,19.0,70,0.00,CLR,FEW,0.00,WeatherDisplay:10.37,2013-01-22 03:25:00,
2013-01-21 22:30:00,10.2,2.4,30.00,West,280,14.0,19.0,70,0.00,CLR,FEW,0.00,WeatherDisplay:10.37,2013-01-22 03:30:00,
2013-01-21 22:40:00,10.2,2.1,30.00,West,259,12.0,12.0,69,0.00,CLR,FEW,0.00,WeatherDisplay:10.37,2013-01-22 03:40:00,
2013-01-21 22:45:00,10.0,1.6,30.00,WSW,258,9.0,16.0,68,0.00,CLR,FEW,0.00,WeatherDisplay:10.37,2013-01-22 03:45:00,
2013-01-21 22:50:00,9.5,0.4,30.00,West,269,10.0,16.0,66,0.00,CLR,FEW,0.00,WeatherDisplay:10.37,2013-01-22 03:50:00,
2013-01-21 23:00:00,9.3,-0.1,30.00,West,263,10.0,14.0,65,0.00,CLR,FEW,0.00,WeatherDisplay:10.37,2013-01-22 04:00:00,
2013-01-21 23:05:00,9.3,-0.4,30.00,WSW,256,10.0,14.0,64,0.00,CLR,FEW,0.00,WeatherDisplay:10.37,2013-01-22 04:05:00,
2013-01-21 23:10:00,9.0,-0.8,30.00,WSW,253,9.0,13.0,64,0.00,CLR,FEW,0.00,WeatherDisplay:10.37,2013-01-22 04:10:00,
2013-01-21 23:15:00,9.5,-0.2,30.00,West,261,9.0,10.0,64,0.00,CLR,FEW,0.00,WeatherDisplay:10.37,2013-01-22 04:15:00,
2013-01-21 23:20:00,9.3,-0.4,30.00,WSW,244,8.0,8.0,64,0.00,CLR,FEW,0.00,WeatherDisplay:10.37,2013-01-22 04:20:00,
2013-01-21 23:25:00,9.5,-0.2,30.00,SW,234,7.0,7.0,64,0.00,CLR,FEW,0.00,WeatherDisplay:10.37,2013-01-22 04:25:00,
2013-01-21 23:30:00,9.7,0.3,30.00,WSW,258,8.0,17.0,65,0.00,CLR,FEW,0.00,WeatherDisplay:10.37,2013-01-22 04:30:00,
2013-01-21 23:35:00,9.5,0.1,30.00,West,277,7.0,10.0,65,0.00,CLR,FEW,0.00,WeatherDisplay:10.37,2013-01-22 04:35:00,
2013-01-21 23:40:00,9.5,0.4,30.00,West,272,8.0,10.0,66,0.00,CLR,FEW,0.00,WeatherDisplay:10.37,2013-01-22 04:40:00,
2013-01-21 23:45:00,9.9,0.8,30.00,West,260,10.0,14.0,66,0.00,CLR,FEW,0.00,WeatherDisplay:10.37,2013-01-22 04:45:00,
2013-01-21 23:50:00,9.3,-0.1,30.00,WSW,257,9.0,15.0,65,0.00,CLR,FEW,0.00,WeatherDisplay:10.37,2013-01-22 04:50:00,